Time;durP1;ratioP1;P1;durP2;ratioP2;P2;SDS_P1;SDS_P2;PMS_P1;PMS_P2;Temp;Humidity;BMP_temperature;BMP_pressure;BME280_temperature;BME280_humidity;BME280_pressure;Samples;Min_cycle;Max_cycle;Signal;HPM_P1;HPM_P2
2022/01/09 00:00:09;;;;;;;0.90;0.80;;;;;;;;;;5048230;28;20202;-78
2022/01/09 00:02:37;;;;;;;1.00;0.80;;;;;;;;;;5044453;28;20203;-80
2022/01/09 00:05:04;;;;;;;2.22;0.95;;;;;;;;;;5046160;28;20222;-80
2022/01/09 00:07:31;;;;;;;0.93;0.70;;;;;;;;;;5033395;28;20203;-80
2022/01/09 00:10:00;;;;;;;0.85;0.70;;;;;;;;;;5046827;28;20210;-77
2022/01/09 00:12:27;;;;;;;1.10;0.85;;;;;;;;;;5053536;28;20308;-77
2022/01/09 00:14:54;;;;;;;1.45;0.88;;;;;;;;;;5038994;28;20643;-77
2022/01/09 00:17:23;;;;;;;0.80;0.70;;;;;;;;;;5050437;28;20209;-78
2022/01/09 00:19:50;;;;;;;0.80;0.70;;;;;;;;;;5040024;28;20554;-78
2022/01/09 00:22:21;;;;;;;1.20;0.90;;;;;;;;;;5050449;28;20194;-78
2022/01/09 00:24:48;;;;;;;1.10;0.70;;;;;;;;;;5048786;28;20278;-78
2022/01/09 00:27:16;;;;;;;1.27;0.98;;;;;;;;;;5046391;28;20201;-78
2022/01/09 00:29:43;;;;;;;1.10;0.82;;;;;;;;;;5036984;28;20204;-78
2022/01/09 00:32:10;;;;;;;1.95;0.90;;;;;;;;;;5044404;28;20218;-77
2022/01/09 00:34:38;;;;;;;1.45;0.98;;;;;;;;;;5026436;28;20213;-78
2022/01/09 00:37:05;;;;;;;1.13;0.80;;;;;;;;;;5048618;28;20205;-79
2022/01/09 00:39:32;;;;;;;1.27;0.80;;;;;;;;;;5045079;28;20206;-78
2022/01/09 00:41:59;;;;;;;1.30;0.90;;;;;;;;;;5052572;28;20206;-77
2022/01/09 00:44:27;;;;;;;0.90;0.75;;;;;;;;;;5043653;28;20191;-77
2022/01/09 00:46:56;;;;;;;1.55;0.95;;;;;;;;;;5039909;28;20194;-78
2022/01/09 00:49:24;;;;;;;0.93;0.77;;;;;;;;;;5047040;28;20195;-77
2022/01/09 00:51:51;;;;;;;1.00;0.70;;;;;;;;;;5037164;28;20219;-77
2022/01/09 00:54:18;;;;;;;1.00;0.80;;;;;;;;;;5046974;28;20198;-77
2022/01/09 00:56:45;;;;;;;1.00;0.88;;;;;;;;;;5043101;28;20204;-77
2022/01/09 00:59:12;;;;;;;0.80;0.70;;;;;;;;;;5047977;28;20202;-78
2022/01/09 01:01:40;;;;;;;0.90;0.80;;;;;;;;;;5043703;28;20190;-77
2022/01/09 01:04:07;;;;;;;1.50;0.90;;;;;;;;;;5046485;28;20199;-78
2022/01/09 01:06:35;;;;;;;1.00;0.90;;;;;;;;;;5051352;28;20219;-78
2022/01/09 01:09:02;;;;;;;1.52;1.00;;;;;;;;;;5033382;28;20204;-77
2022/01/09 01:11:29;;;;;;;0.80;0.70;;;;;;;;;;5039058;28;20219;-77
2022/01/09 01:13:56;;;;;;;1.00;0.70;;;;;;;;;;5035924;28;20205;-77
2022/01/09 01:16:23;;;;;;;1.58;1.00;;;;;;;;;;5041569;28;20194;-76
2022/01/09 01:18:54;;;;;;;0.90;0.73;;;;;;;;;;5033383;28;20216;-77
2022/01/09 01:21:23;;;;;;;0.80;0.60;;;;;;;;;;5048411;28;20214;-77
2022/01/09 01:23:50;;;;;;;0.90;0.80;;;;;;;;;;5043353;28;20199;-76
2022/01/09 01:26:17;;;;;;;0.90;0.70;;;;;;;;;;5044836;28;20207;-77
2022/01/09 01:28:44;;;;;;;1.17;0.80;;;;;;;;;;5038202;28;20211;-77
2022/01/09 01:31:12;;;;;;;0.90;0.70;;;;;;;;;;5041220;28;20195;-76
2022/01/09 01:33:39;;;;;;;1.20;0.90;;;;;;;;;;5042721;28;20535;-77
2022/01/09 01:36:07;;;;;;;1.00;0.70;;;;;;;;;;5048989;28;20853;-77
2022/01/09 01:38:35;;;;;;;0.80;0.60;;;;;;;;;;5036011;28;20673;-77
2022/01/09 01:41:02;;;;;;;0.77;0.60;;;;;;;;;;5045746;28;20191;-77
2022/01/09 01:43:29;;;;;;;1.05;0.80;;;;;;;;;;5042442;28;20207;-76
2022/01/09 01:45:57;;;;;;;1.00;0.70;;;;;;;;;;5032603;28;20199;-77
2022/01/09 01:48:25;;;;;;;0.90;0.80;;;;;;;;;;5045597;28;20202;-77
2022/01/09 01:50:53;;;;;;;0.90;0.80;;;;;;;;;;5041717;28;20195;-76
2022/01/09 01:53:22;;;;;;;1.13;0.90;;;;;;;;;;5032062;28;20215;-77
2022/01/09 01:55:53;;;;;;;0.90;0.80;;;;;;;;;;5044563;28;20229;-77
2022/01/09 01:58:21;;;;;;;1.00;0.70;;;;;;;;;;5033381;28;20330;-76
2022/01/09 02:00:48;;;;;;;1.00;0.85;;;;;;;;;;5037473;28;20198;-77
2022/01/09 02:03:15;;;;;;;1.30;1.20;;;;;;;;;;5053939;28;20194;-77
2022/01/09 02:05:44;;;;;;;0.98;0.80;;;;;;;;;;5043740;28;20215;-77
2022/01/09 02:08:12;;;;;;;1.25;0.70;;;;;;;;;;5041189;28;20636;-77
2022/01/09 02:10:42;;;;;;;1.00;0.73;;;;;;;;;;5047665;28;20203;-77
2022/01/09 02:13:09;;;;;;;1.00;0.90;;;;;;;;;;5033589;28;20223;-77
2022/01/09 02:15:37;;;;;;;0.80;0.70;;;;;;;;;;5044361;28;20199;-77
2022/01/09 02:18:05;;;;;;;0.93;0.77;;;;;;;;;;5033346;28;20682;-77
2022/01/09 02:20:34;;;;;;;1.00;0.80;;;;;;;;;;5047662;28;20195;-77
2022/01/09 02:23:02;;;;;;;1.13;0.90;;;;;;;;;;5048599;28;20199;-77
2022/01/09 02:25:29;;;;;;;0.80;0.70;;;;;;;;;;5041658;28;20200;-77
2022/01/09 02:27:56;;;;;;;0.80;0.65;;;;;;;;;;5032940;28;20583;-76
2022/01/09 02:30:23;;;;;;;0.80;0.60;;;;;;;;;;5033203;28;20199;-76
2022/01/09 02:32:50;;;;;;;0.88;0.68;;;;;;;;;;5042654;28;20689;-76
2022/01/09 02:35:17;;;;;;;0.90;0.80;;;;;;;;;;5043606;28;20218;-76
2022/01/09 02:37:46;;;;;;;1.60;0.70;;;;;;;;;;5034297;28;20199;-76
2022/01/09 02:40:13;;;;;;;0.90;0.70;;;;;;;;;;5034438;28;20230;-77
2022/01/09 02:42:40;;;;;;;1.00;0.80;;;;;;;;;;5049104;28;20194;-79
2022/01/09 02:45:07;;;;;;;0.90;0.80;;;;;;;;;;5041980;28;20195;-77
2022/01/09 02:47:36;;;;;;;0.80;0.60;;;;;;;;;;5037166;28;20211;-77
2022/01/09 02:50:11;;;;;;;1.15;0.68;;;;;;;;;;5035917;28;20234;-77
2022/01/09 02:52:49;;;;;;;1.00;0.70;;;;;;;;;;5040190;28;20246;-76
2022/01/09 02:55:17;;;;;;;0.80;0.60;;;;;;;;;;5040306;28;20296;-77
2022/01/09 02:57:45;;;;;;;1.00;0.70;;;;;;;;;;5037725;28;20211;-77
2022/01/09 03:00:14;;;;;;;0.98;0.88;;;;;;;;;;5040499;28;20207;-77
2022/01/09 03:02:41;;;;;;;1.17;0.77;;;;;;;;;;5049583;28;20207;-77
2022/01/09 03:05:09;;;;;;;1.40;0.68;;;;;;;;;;5042958;28;20693;-76
2022/01/09 03:07:36;;;;;;;0.80;0.60;;;;;;;;;;5043017;28;20199;-77
2022/01/09 03:10:04;;;;;;;1.00;0.70;;;;;;;;;;5039782;28;20681;-77
2022/01/09 03:12:33;;;;;;;0.90;0.70;;;;;;;;;;5041880;28;20214;-76
2022/01/09 03:15:00;;;;;;;1.10;0.70;;;;;;;;;;5049188;28;20198;-75
2022/01/09 03:17:27;;;;;;;1.10;0.80;;;;;;;;;;5044446;28;20234;-75
2022/01/09 03:19:54;;;;;;;0.82;0.70;;;;;;;;;;5036391;28;20198;-76
2022/01/09 03:22:21;;;;;;;0.80;0.70;;;;;;;;;;5049487;28;20646;-75
2022/01/09 03:24:49;;;;;;;0.80;0.70;;;;;;;;;;5039522;28;20643;-75
2022/01/09 03:27:16;;;;;;;1.15;0.70;;;;;;;;;;5046450;28;20195;-75
2022/01/09 03:29:45;;;;;;;1.05;0.88;;;;;;;;;;5048646;28;20572;-76
2022/01/09 03:32:12;;;;;;;0.90;0.80;;;;;;;;;;5051950;28;20215;-77
2022/01/09 03:34:39;;;;;;;0.80;0.60;;;;;;;;;;5050076;28;20210;-76
2022/01/09 03:37:07;;;;;;;0.90;0.80;;;;;;;;;;5050126;28;20206;-76
2022/01/09 03:39:34;;;;;;;1.00;0.77;;;;;;;;;;5043088;28;20673;-76
2022/01/09 03:42:01;;;;;;;0.90;0.70;;;;;;;;;;5040740;28;20204;-76
2022/01/09 03:44:29;;;;;;;0.90;0.75;;;;;;;;;;5038503;28;20194;-76
2022/01/09 03:46:57;;;;;;;1.00;0.90;;;;;;;;;;5042785;28;20203;-77
2022/01/09 03:49:25;;;;;;;1.05;0.80;;;;;;;;;;5044170;28;20662;-77
2022/01/09 03:51:54;;;;;;;1.20;0.88;;;;;;;;;;5040244;28;20202;-77
2022/01/09 03:54:22;;;;;;;0.90;0.80;;;;;;;;;;5040732;28;20203;-76
2022/01/09 03:56:49;;;;;;;0.90;0.77;;;;;;;;;;5044219;28;20210;-76
2022/01/09 03:59:16;;;;;;;1.00;0.90;;;;;;;;;;5048775;28;20199;-77
2022/01/09 04:01:43;;;;;;;1.10;1.00;;;;;;;;;;5047393;28;20203;-77
2022/01/09 04:04:12;;;;;;;0.80;0.70;;;;;;;;;;5039012;28;20685;-76
2022/01/09 04:06:45;;;;;;;1.38;0.80;;;;;;;;;;5044034;28;20207;-77
2022/01/09 04:09:18;;;;;;;0.80;0.70;;;;;;;;;;5043138;28;20207;-77
2022/01/09 04:11:46;;;;;;;1.00;0.85;;;;;;;;;;5045027;28;20221;-77
2022/01/09 04:14:13;;;;;;;1.10;0.90;;;;;;;;;;5048404;28;20677;-76
2022/01/09 04:16:41;;;;;;;1.35;1.20;;;;;;;;;;5041260;28;20198;-77
2022/01/09 04:19:12;;;;;;;1.50;1.08;;;;;;;;;;5045066;28;20195;-77
2022/01/09 04:21:41;;;;;;;1.00;0.90;;;;;;;;;;5044922;28;20650;-77
2022/01/09 04:24:08;;;;;;;1.27;1.17;;;;;;;;;;5047187;28;20199;-76
2022/01/09 04:26:35;;;;;;;2.65;1.30;;;;;;;;;;5044195;28;20208;-76
2022/01/09 04:29:02;;;;;;;1.20;1.00;;;;;;;;;;5036946;28;20206;-77
2022/01/09 04:31:29;;;;;;;1.50;1.10;;;;;;;;;;5039150;28;20207;-76
2022/01/09 04:33:56;;;;;;;1.10;1.00;;;;;;;;;;5039167;28;20222;-77
2022/01/09 04:36:23;;;;;;;1.40;0.95;;;;;;;;;;5031138;28;20207;-77
2022/01/09 04:38:54;;;;;;;1.55;1.30;;;;;;;;;;5029911;28;20203;-78
2022/01/09 04:41:21;;;;;;;1.65;1.00;;;;;;;;;;5034112;28;20564;-77
2022/01/09 04:43:49;;;;;;;1.20;1.10;;;;;;;;;;5040923;28;20585;-77
2022/01/09 04:46:22;;;;;;;1.10;1.00;;;;;;;;;;5049680;28;20240;-76
2022/01/09 04:48:52;;;;;;;3.95;1.13;;;;;;;;;;5034977;28;20220;-76
2022/01/09 04:51:19;;;;;;;1.10;0.90;;;;;;;;;;5049014;28;20222;-76
2022/01/09 04:53:46;;;;;;;1.02;0.93;;;;;;;;;;5043101;28;20211;-76
2022/01/09 04:56:15;;;;;;;1.30;1.05;;;;;;;;;;5036065;28;20206;-77
2022/01/09 04:58:42;;;;;;;8.18;0.80;;;;;;;;;;5033154;28;20202;-77
2022/01/09 05:01:09;;;;;;;1.00;0.88;;;;;;;;;;5040466;28;20204;-77
2022/01/09 05:03:37;;;;;;;1.00;0.90;;;;;;;;;;5036244;28;20191;-76
2022/01/09 05:06:04;;;;;;;1.70;1.10;;;;;;;;;;5039963;28;20706;-77
2022/01/09 05:08:31;;;;;;;0.98;0.80;;;;;;;;;;5045281;28;20543;-77
2022/01/09 05:10:58;;;;;;;1.65;0.90;;;;;;;;;;5046032;28;20214;-76
2022/01/09 05:13:26;;;;;;;1.20;1.02;;;;;;;;;;5044520;28;20216;-77
2022/01/09 05:15:55;;;;;;;1.38;0.95;;;;;;;;;;5041099;28;20947;-77
2022/01/09 05:18:22;;;;;;;1.15;0.90;;;;;;;;;;5044072;28;20205;-77
2022/01/09 05:20:49;;;;;;;1.85;1.50;;;;;;;;;;5030590;28;20294;-77
2022/01/09 05:23:16;;;;;;;1.48;1.00;;;;;;;;;;5032271;28;20207;-76
2022/01/09 05:25:43;;;;;;;1.40;1.00;;;;;;;;;;5044404;28;20195;-76
2022/01/09 05:28:11;;;;;;;1.30;1.10;;;;;;;;;;5040107;28;20650;-77
2022/01/09 05:30:39;;;;;;;0.90;0.70;;;;;;;;;;5037740;28;20199;-76
2022/01/09 05:33:06;;;;;;;1.30;0.70;;;;;;;;;;5041910;28;20226;-76
2022/01/09 05:35:34;;;;;;;2.70;0.80;;;;;;;;;;5034948;28;20200;-76
2022/01/09 05:38:01;;;;;;;1.52;0.80;;;;;;;;;;5040187;28;20199;-76
2022/01/09 05:40:30;;;;;;;1.30;1.05;;;;;;;;;;5032023;28;20203;-77
2022/01/09 05:42:57;;;;;;;0.80;0.70;;;;;;;;;;5030803;28;20191;-77
2022/01/09 05:45:24;;;;;;;2.65;0.90;;;;;;;;;;5036297;28;20688;-76
2022/01/09 05:47:53;;;;;;;2.85;2.58;;;;;;;;;;5038638;28;20195;-77
2022/01/09 05:50:21;;;;;;;3.00;1.67;;;;;;;;;;5030333;28;20195;-77
2022/01/09 05:52:49;;;;;;;3.45;1.20;;;;;;;;;;5047744;28;20681;-76
2022/01/09 05:55:16;;;;;;;2.50;1.20;;;;;;;;;;5035541;28;20195;-77
2022/01/09 05:57:44;;;;;;;3.55;1.52;;;;;;;;;;5046631;28;20205;-77
2022/01/09 06:00:14;;;;;;;2.85;1.73;;;;;;;;;;5047607;28;20201;-76
2022/01/09 06:02:41;;;;;;;6.15;1.30;;;;;;;;;;5036183;28;20231;-76
2022/01/09 06:05:12;;;;;;;1.80;1.10;;;;;;;;;;5034313;28;20234;-76
2022/01/09 06:07:39;;;;;;;14.75;2.35;;;;;;;;;;5033460;28;20700;-76
2022/01/09 06:10:07;;;;;;;5.80;1.30;;;;;;;;;;5043468;28;20662;-76
2022/01/09 06:12:34;;;;;;;2.67;1.52;;;;;;;;;;5035055;28;20211;-77
2022/01/09 06:15:01;;;;;;;7.40;1.70;;;;;;;;;;5046239;28;20202;-76
2022/01/09 06:17:28;;;;;;;3.60;1.50;;;;;;;;;;5036729;28;20210;-76
2022/01/09 06:19:55;;;;;;;5.70;1.83;;;;;;;;;;5047769;28;20194;-77
2022/01/09 06:22:24;;;;;;;5.28;2.00;;;;;;;;;;5040447;28;20200;-77
2022/01/09 06:24:51;;;;;;;4.80;1.80;;;;;;;;;;5050733;28;20230;-76
2022/01/09 06:27:18;;;;;;;4.78;1.90;;;;;;;;;;5046225;28;20226;-76
2022/01/09 06:29:46;;;;;;;10.63;2.53;;;;;;;;;;5041593;28;20200;-76
2022/01/09 06:32:13;;;;;;;3.25;1.45;;;;;;;;;;5039574;28;20203;-76
2022/01/09 06:34:41;;;;;;;6.70;2.15;;;;;;;;;;5051660;28;20226;-76
2022/01/09 06:37:10;;;;;;;4.28;1.67;;;;;;;;;;5048136;28;20195;-77
2022/01/09 06:39:41;;;;;;;3.85;1.60;;;;;;;;;;5042891;28;20679;-77
2022/01/09 06:42:08;;;;;;;8.48;2.75;;;;;;;;;;5039798;28;20328;-77
2022/01/09 06:44:38;;;;;;;12.50;2.40;;;;;;;;;;5045962;28;20203;-76
2022/01/09 06:47:05;;;;;;;4.47;1.45;;;;;;;;;;5049803;28;20191;-77
2022/01/09 06:49:34;;;;;;;6.80;2.38;;;;;;;;;;5040106;28;20202;-77
2022/01/09 06:52:01;;;;;;;4.93;2.10;;;;;;;;;;5047179;28;20202;-76
2022/01/09 06:54:28;;;;;;;5.18;2.40;;;;;;;;;;5040290;28;20689;-76
2022/01/09 06:56:57;;;;;;;7.20;2.60;;;;;;;;;;5034856;28;20257;-77
2022/01/09 06:59:24;;;;;;;9.25;1.90;;;;;;;;;;5047571;28;20202;-76
2022/01/09 07:01:51;;;;;;;9.15;2.30;;;;;;;;;;5044654;28;20195;-76
2022/01/09 07:04:18;;;;;;;7.45;2.97;;;;;;;;;;5054737;28;20195;-76
2022/01/09 07:06:45;;;;;;;6.28;2.13;;;;;;;;;;5055770;28;20202;-82
2022/01/09 07:09:12;;;;;;;4.97;2.08;;;;;;;;;;5045023;28;20681;-76
2022/01/09 07:11:39;;;;;;;6.38;1.92;;;;;;;;;;5034471;28;20206;-76
2022/01/09 07:14:09;;;;;;;5.63;1.42;;;;;;;;;;5044850;28;20223;-76
2022/01/09 07:16:36;;;;;;;10.48;2.10;;;;;;;;;;5047781;28;20646;-76
2022/01/09 07:19:04;;;;;;;6.63;1.55;;;;;;;;;;5054372;28;20593;-76
2022/01/09 07:21:31;;;;;;;5.82;1.83;;;;;;;;;;5055993;28;20199;-76
2022/01/09 07:23:58;;;;;;;11.07;1.85;;;;;;;;;;5043387;28;20187;-76
2022/01/09 07:26:25;;;;;;;2.90;1.60;;;;;;;;;;5037506;28;20199;-76
2022/01/09 07:28:52;;;;;;;6.43;2.50;;;;;;;;;;5050444;28;20195;-77
2022/01/09 07:31:20;;;;;;;4.32;1.85;;;;;;;;;;5039083;28;20191;-77
2022/01/09 07:33:47;;;;;;;6.43;2.30;;;;;;;;;;5039758;28;20215;-76
2022/01/09 07:36:17;;;;;;;5.47;1.67;;;;;;;;;;5045824;28;20218;-76
2022/01/09 07:38:44;;;;;;;3.00;1.35;;;;;;;;;;5049450;28;20223;-77
2022/01/09 07:41:13;;;;;;;6.32;2.08;;;;;;;;;;5051195;28;20209;-77
2022/01/09 07:43:40;;;;;;;4.38;2.38;;;;;;;;;;5051641;28;20745;-76
2022/01/09 07:46:13;;;;;;;4.88;2.92;;;;;;;;;;5046228;28;20199;-76
2022/01/09 07:48:41;;;;;;;9.40;3.38;;;;;;;;;;5050392;28;20581;-76
2022/01/09 07:51:09;;;;;;;10.20;2.42;;;;;;;;;;5044193;28;20206;-77
2022/01/09 07:53:36;;;;;;;6.07;2.30;;;;;;;;;;5036312;28;20215;-77
2022/01/09 07:56:05;;;;;;;8.20;2.58;;;;;;;;;;5048774;28;20650;-77
2022/01/09 07:58:32;;;;;;;8.52;2.42;;;;;;;;;;5047388;28;20213;-77
2022/01/09 08:00:59;;;;;;;4.80;2.85;;;;;;;;;;5050427;28;20206;-76
2022/01/09 08:03:26;;;;;;;7.30;1.95;;;;;;;;;;5050045;28;20210;-76
2022/01/09 08:05:55;;;;;;;14.38;2.40;;;;;;;;;;5049068;28;20214;-77
2022/01/09 08:08:22;;;;;;;10.48;2.85;;;;;;;;;;5036652;28;20203;-77
2022/01/09 08:10:49;;;;;;;8.13;2.20;;;;;;;;;;5047338;28;20199;-77
2022/01/09 08:13:16;;;;;;;16.05;3.30;;;;;;;;;;5050645;28;20209;-77
2022/01/09 08:15:44;;;;;;;7.30;2.30;;;;;;;;;;5049759;28;20207;-76
2022/01/09 08:18:11;;;;;;;4.60;2.25;;;;;;;;;;5035288;28;20218;-77
2022/01/09 08:20:38;;;;;;;11.25;2.15;;;;;;;;;;5040015;28;20210;-77
2022/01/09 08:23:07;;;;;;;6.90;3.20;;;;;;;;;;5044409;28;20221;-77
2022/01/09 08:25:34;;;;;;;6.10;2.33;;;;;;;;;;5049235;28;20202;-76
2022/01/09 08:28:01;;;;;;;5.32;2.40;;;;;;;;;;5040441;28;20210;-77
2022/01/09 08:30:28;;;;;;;8.27;2.15;;;;;;;;;;5043012;28;20724;-77
2022/01/09 08:32:57;;;;;;;6.13;2.78;;;;;;;;;;5048429;28;20705;-77
2022/01/09 08:35:24;;;;;;;5.38;2.38;;;;;;;;;;5049622;28;20218;-76
2022/01/09 08:37:51;;;;;;;7.47;2.30;;;;;;;;;;5049241;28;20205;-76
2022/01/09 08:40:22;;;;;;;11.50;2.67;;;;;;;;;;5036646;28;20205;-76
2022/01/09 08:42:49;;;;;;;10.75;2.17;;;;;;;;;;5050316;28;20199;-77
2022/01/09 08:45:17;;;;;;;10.00;2.10;;;;;;;;;;5044715;28;20226;-77
2022/01/09 08:47:46;;;;;;;4.85;1.88;;;;;;;;;;5046332;28;20589;-77
2022/01/09 08:50:14;;;;;;;8.95;2.42;;;;;;;;;;5044865;28;20228;-77
2022/01/09 08:52:41;;;;;;;6.72;2.85;;;;;;;;;;5049037;28;20204;-76
2022/01/09 08:55:09;;;;;;;11.27;1.90;;;;;;;;;;5045648;28;20729;-76
2022/01/09 08:57:37;;;;;;;6.40;2.58;;;;;;;;;;5051478;28;20203;-77
2022/01/09 09:00:06;;;;;;;5.97;2.05;;;;;;;;;;5049892;28;20203;-77
2022/01/09 09:02:33;;;;;;;3.88;2.95;;;;;;;;;;5040999;28;20202;-77
2022/01/09 09:05:01;;;;;;;7.15;2.70;;;;;;;;;;5033896;28;20690;-77
2022/01/09 09:07:28;;;;;;;3.65;1.90;;;;;;;;;;5032681;28;20211;-77
2022/01/09 09:09:55;;;;;;;4.13;2.00;;;;;;;;;;5044422;28;20211;-76
2022/01/09 09:12:22;;;;;;;5.47;2.35;;;;;;;;;;5042360;28;20203;-77
2022/01/09 09:14:51;;;;;;;5.75;2.38;;;;;;;;;;5049331;28;20199;-76
2022/01/09 09:17:18;;;;;;;3.28;1.95;;;;;;;;;;5044719;28;20619;-76
2022/01/09 09:19:45;;;;;;;9.40;2.50;;;;;;;;;;5048542;28;20203;-77
2022/01/09 09:22:12;;;;;;;5.40;1.83;;;;;;;;;;5052056;28;20673;-77
2022/01/09 09:24:40;;;;;;;7.65;1.90;;;;;;;;;;5040763;28;20558;-77
2022/01/09 09:27:07;;;;;;;6.80;2.50;;;;;;;;;;5034881;28;20649;-76
2022/01/09 09:29:35;;;;;;;4.65;2.45;;;;;;;;;;5044047;28;20195;-77
2022/01/09 09:32:03;;;;;;;9.43;3.33;;;;;;;;;;5038606;28;20195;-76
2022/01/09 09:34:31;;;;;;;9.95;2.30;;;;;;;;;;5050043;28;20221;-76
2022/01/09 09:36:58;;;;;;;7.05;2.35;;;;;;;;;;5050811;28;20626;-78
2022/01/09 09:39:25;;;;;;;11.43;2.38;;;;;;;;;;5036975;28;20195;-77
2022/01/09 09:41:52;;;;;;;2.70;1.83;;;;;;;;;;5050902;28;20558;-76
2022/01/09 09:44:19;;;;;;;5.32;2.05;;;;;;;;;;5050045;28;20198;-77
2022/01/09 09:46:49;;;;;;;11.23;2.50;;;;;;;;;;5040710;28;20214;-77
2022/01/09 09:49:18;;;;;;;7.35;2.50;;;;;;;;;;5037725;28;20281;-76
2022/01/09 09:51:45;;;;;;;5.45;3.15;;;;;;;;;;5034889;28;20195;-77
2022/01/09 09:54:13;;;;;;;4.97;2.42;;;;;;;;;;5048161;28;20250;-76
2022/01/09 09:56:41;;;;;;;6.82;2.38;;;;;;;;;;5034771;28;20232;-77
2022/01/09 09:59:09;;;;;;;6.38;1.90;;;;;;;;;;5032133;28;20202;-76
2022/01/09 10:01:37;;;;;;;7.22;2.30;;;;;;;;;;5044425;28;20536;-77
2022/01/09 10:04:05;;;;;;;8.55;2.53;;;;;;;;;;5045358;28;20203;-77
2022/01/09 10:06:38;;;;;;;4.05;1.92;;;;;;;;;;5041551;28;20229;-76
2022/01/09 10:09:07;;;;;;;7.57;2.00;;;;;;;;;;5044760;28;20198;-77
2022/01/09 10:11:42;;;;;;;4.55;2.38;;;;;;;;;;5049709;28;20660;-77
2022/01/09 10:14:12;;;;;;;9.38;1.73;;;;;;;;;;5042420;28;20562;-76
2022/01/09 10:16:39;;;;;;;9.55;2.47;;;;;;;;;;5040601;28;20647;-77
2022/01/09 10:19:06;;;;;;;4.32;2.67;;;;;;;;;;5037497;28;20234;-77
2022/01/09 10:21:33;;;;;;;4.32;2.20;;;;;;;;;;5044932;28;20187;-76
2022/01/09 10:24:03;;;;;;;5.82;2.22;;;;;;;;;;5046901;28;20190;-77
2022/01/09 10:26:31;;;;;;;4.13;2.38;;;;;;;;;;5035324;28;20199;-77
2022/01/09 10:28:58;;;;;;;3.95;2.47;;;;;;;;;;5035487;28;20658;-76
2022/01/09 10:31:26;;;;;;;3.47;2.20;;;;;;;;;;5039354;28;20202;-77
2022/01/09 10:33:57;;;;;;;8.60;2.35;;;;;;;;;;5050122;28;20203;-76
2022/01/09 10:36:34;;;;;;;7.50;2.15;;;;;;;;;;5050694;28;20237;-76
2022/01/09 10:39:05;;;;;;;6.10;1.83;;;;;;;;;;5043881;28;20203;-76
2022/01/09 10:41:55;;;;;;;6.55;2.75;;;;;;;;;;5041941;28;20568;-77
2022/01/09 10:44:25;;;;;;;7.95;1.92;;;;;;;;;;5031906;28;20581;-78
2022/01/09 10:46:57;;;;;;;8.10;3.13;;;;;;;;;;5043559;28;20204;-79
2022/01/09 10:49:24;;;;;;;3.97;2.40;;;;;;;;;;5054665;28;20207;-78
2022/01/09 10:51:52;;;;;;;12.02;3.03;;;;;;;;;;5056939;28;20263;-78
2022/01/09 10:54:30;;;;;;;8.27;2.58;;;;;;;;;;5044253;28;20267;-78
2022/01/09 10:57:11;;;;;;;4.05;2.28;;;;;;;;;;5046418;28;20211;-79
2022/01/09 10:59:38;;;;;;;2.42;1.75;;;;;;;;;;5042076;28;20674;-78
2022/01/09 11:02:05;;;;;;;5.10;2.30;;;;;;;;;;5038387;28;20210;-78
2022/01/09 11:04:33;;;;;;;4.07;2.63;;;;;;;;;;5032635;28;20215;-78
2022/01/09 11:07:01;;;;;;;2.75;1.92;;;;;;;;;;5044581;28;20203;-79
2022/01/09 11:09:32;;;;;;;4.90;1.80;;;;;;;;;;5046410;28;20199;-78
2022/01/09 11:12:01;;;;;;;4.18;2.70;;;;;;;;;;5045001;28;20604;-78
2022/01/09 11:14:35;;;;;;;4.82;2.60;;;;;;;;;;5045573;28;20583;-79
2022/01/09 11:17:04;;;;;;;9.02;2.85;;;;;;;;;;5047198;28;20702;-78
2022/01/09 11:19:31;;;;;;;4.30;2.50;;;;;;;;;;5045078;28;20207;-79
2022/01/09 11:22:00;;;;;;;3.17;1.92;;;;;;;;;;5043403;28;20211;-79
2022/01/09 11:24:45;;;;;;;6.20;3.38;;;;;;;;;;5044845;28;20212;-78
2022/01/09 11:27:22;;;;;;;4.30;2.10;;;;;;;;;;5034045;28;20218;-79
2022/01/09 11:29:59;;;;;;;2.63;2.10;;;;;;;;;;5043812;28;20199;-79
2022/01/09 11:32:31;;;;;;;5.18;2.25;;;;;;;;;;5045601;28;20257;-79
2022/01/09 11:35:02;;;;;;;4.18;3.20;;;;;;;;;;5045187;28;20682;-78
2022/01/09 11:37:36;;;;;;;6.25;2.47;;;;;;;;;;5039470;28;20206;-78
2022/01/09 11:40:05;;;;;;;9.75;3.08;;;;;;;;;;5041576;28;20248;-79
2022/01/09 11:42:32;;;;;;;10.00;3.15;;;;;;;;;;5033607;28;20201;-79
2022/01/09 11:44:59;;;;;;;4.55;2.90;;;;;;;;;;5046087;28;20208;-79
2022/01/09 11:47:26;;;;;;;4.63;2.65;;;;;;;;;;5035973;28;20210;-78
2022/01/09 11:50:07;;;;;;;10.18;3.83;;;;;;;;;;5045011;28;20290;-79
2022/01/09 11:52:34;;;;;;;7.35;2.63;;;;;;;;;;5050110;28;20195;-79
2022/01/09 11:55:04;;;;;;;4.38;2.40;;;;;;;;;;5032949;28;20222;-79
2022/01/09 11:57:40;;;;;;;3.40;3.00;;;;;;;;;;5047937;28;20233;-78
2022/01/09 12:00:09;;;;;;;4.88;2.35;;;;;;;;;;5046040;28;20213;-79
2022/01/09 12:02:37;;;;;;;5.05;2.40;;;;;;;;;;5041454;28;20192;-79
2022/01/09 12:05:06;;;;;;;3.72;2.08;;;;;;;;;;5050239;28;20231;-79
2022/01/09 12:08:04;;;;;;;8.27;2.40;;;;;;;;;;5047494;28;20207;-79
2022/01/09 12:10:35;;;;;;;3.22;2.42;;;;;;;;;;5046144;28;20642;-78
2022/01/09 12:13:04;;;;;;;6.78;2.97;;;;;;;;;;5043596;28;20245;-79
2022/01/09 12:15:35;;;;;;;3.83;2.30;;;;;;;;;;5039659;28;20445;-78
2022/01/09 12:18:07;;;;;;;3.67;2.40;;;;;;;;;;5042851;28;20214;-78
2022/01/09 12:20:39;;;;;;;8.50;3.00;;;;;;;;;;5050673;28;20206;-78
2022/01/09 12:23:07;;;;;;;3.30;2.55;;;;;;;;;;5048783;28;20658;-79
2022/01/09 12:25:53;;;;;;;3.83;2.67;;;;;;;;;;5038104;28;20203;-79
2022/01/09 12:28:38;;;;;;;4.88;2.72;;;;;;;;;;5049530;28;20712;-78
2022/01/09 12:31:06;;;;;;;2.55;2.08;;;;;;;;;;5041260;28;20666;-79
2022/01/09 12:33:49;;;;;;;4.95;2.67;;;;;;;;;;5039745;28;20294;-79
2022/01/09 12:36:20;;;;;;;5.55;2.40;;;;;;;;;;5050846;28;20697;-78
2022/01/09 12:38:48;;;;;;;4.32;2.50;;;;;;;;;;5042455;28;20206;-79
2022/01/09 12:41:16;;;;;;;5.82;2.92;;;;;;;;;;5037980;28;20234;-78
2022/01/09 12:43:45;;;;;;;4.57;2.65;;;;;;;;;;5049291;28;20209;-78
2022/01/09 12:46:13;;;;;;;9.48;3.10;;;;;;;;;;5049040;28;20202;-78
2022/01/09 12:48:41;;;;;;;3.90;3.05;;;;;;;;;;5038336;28;20203;-79
2022/01/09 12:51:09;;;;;;;6.63;3.50;;;;;;;;;;5050427;28;20202;-79
2022/01/09 12:53:41;;;;;;;6.20;3.08;;;;;;;;;;5043808;28;20567;-79
2022/01/09 12:56:10;;;;;;;8.18;3.25;;;;;;;;;;5013372;28;20629;-79
2022/01/09 12:58:38;;;;;;;6.75;3.00;;;;;;;;;;5038128;28;20199;-79
2022/01/09 13:01:08;;;;;;;8.32;3.80;;;;;;;;;;5035073;28;20199;-79
2022/01/09 13:03:36;;;;;;;10.45;4.55;;;;;;;;;;5048611;28;20642;-79
2022/01/09 13:06:06;;;;;;;4.40;2.88;;;;;;;;;;5023258;28;20207;-79
2022/01/09 13:08:33;;;;;;;6.70;3.17;;;;;;;;;;5036879;28;20233;-79
2022/01/09 13:11:03;;;;;;;8.88;3.70;;;;;;;;;;5050956;28;20195;-79
2022/01/09 13:13:31;;;;;;;8.57;3.40;;;;;;;;;;5041492;28;20298;-79
2022/01/09 13:15:59;;;;;;;7.82;4.85;;;;;;;;;;5045903;28;20219;-79
2022/01/09 13:18:37;;;;;;;8.10;3.30;;;;;;;;;;5043451;28;20205;-79
2022/01/09 13:21:14;;;;;;;10.73;3.63;;;;;;;;;;5049175;28;20203;-79
2022/01/09 13:24:03;;;;;;;6.18;4.07;;;;;;;;;;5038399;28;20297;-79
2022/01/09 13:26:31;;;;;;;9.48;3.63;;;;;;;;;;5045669;28;20203;-79
2022/01/09 13:28:59;;;;;;;9.95;3.70;;;;;;;;;;5048250;28;20277;-79
2022/01/09 13:31:33;;;;;;;10.43;4.20;;;;;;;;;;5044276;28;20209;-79
2022/01/09 13:34:05;;;;;;;5.38;3.50;;;;;;;;;;5035212;28;20191;-79
2022/01/09 13:36:34;;;;;;;5.38;4.25;;;;;;;;;;5032762;28;20297;-79
2022/01/09 13:39:03;;;;;;;6.50;3.67;;;;;;;;;;5032126;28;20262;-79
2022/01/09 13:41:31;;;;;;;8.00;3.60;;;;;;;;;;5041541;28;20203;-79
2022/01/09 13:44:00;;;;;;;4.40;3.28;;;;;;;;;;5036723;28;20227;-79
2022/01/09 13:46:27;;;;;;;9.75;2.97;;;;;;;;;;5051508;28;20532;-79
2022/01/09 13:48:54;;;;;;;3.60;3.30;;;;;;;;;;5043781;28;20200;-79
2022/01/09 13:51:43;;;;;;;2.90;2.67;;;;;;;;;;5027957;28;20297;-78
2022/01/09 13:54:15;;;;;;;8.07;3.80;;;;;;;;;;5029355;28;20199;-79
2022/01/09 13:56:45;;;;;;;7.63;3.75;;;;;;;;;;5047384;28;20226;-78
2022/01/09 13:59:13;;;;;;;7.32;3.10;;;;;;;;;;5051807;28;20202;-79
2022/01/09 14:01:53;;;;;;;6.95;3.40;;;;;;;;;;5041364;28;20700;-79
2022/01/09 14:04:21;;;;;;;7.40;3.63;;;;;;;;;;5047589;28;20285;-79
2022/01/09 14:07:14;;;;;;;10.55;3.90;;;;;;;;;;5051331;28;20195;-79
2022/01/09 14:09:42;;;;;;;7.65;3.42;;;;;;;;;;5029837;28;20184;-79
2022/01/09 14:12:10;;;;;;;7.85;3.03;;;;;;;;;;5034048;28;20199;-79
2022/01/09 14:14:39;;;;;;;13.65;4.72;;;;;;;;;;5041814;28;20195;-79
2022/01/09 14:17:28;;;;;;;8.25;3.53;;;;;;;;;;5044512;28;20222;-79
2022/01/09 14:19:56;;;;;;;6.63;3.80;;;;;;;;;;5043921;28;20194;-79
2022/01/09 14:22:35;;;;;;;6.70;3.80;;;;;;;;;;5050088;28;20202;-79
2022/01/09 14:25:04;;;;;;;8.13;2.80;;;;;;;;;;5038520;28;20569;-79
2022/01/09 14:27:32;;;;;;;5.00;3.42;;;;;;;;;;5039372;28;20195;-80
2022/01/09 14:30:00;;;;;;;7.95;3.60;;;;;;;;;;5049273;28;20202;-79
2022/01/09 14:32:27;;;;;;;4.47;2.83;;;;;;;;;;5040409;28;20203;-79
2022/01/09 14:34:55;;;;;;;6.03;3.05;;;;;;;;;;5048185;28;20214;-79
2022/01/09 14:37:23;;;;;;;3.55;2.97;;;;;;;;;;5042729;28;20231;-79
2022/01/09 14:39:52;;;;;;;5.45;3.00;;;;;;;;;;5049220;28;20199;-79
2022/01/09 14:42:19;;;;;;;6.40;3.20;;;;;;;;;;5050066;28;20528;-79
2022/01/09 14:44:46;;;;;;;12.70;3.88;;;;;;;;;;5043253;28;20199;-80
2022/01/09 14:47:14;;;;;;;4.70;2.60;;;;;;;;;;5038401;28;20566;-79
2022/01/09 14:49:41;;;;;;;7.40;2.97;;;;;;;;;;5052584;28;20210;-79
2022/01/09 14:52:09;;;;;;;7.90;4.57;;;;;;;;;;5043360;28;20657;-79